createdAt,value
2018-08-19T00:00:29.601Z,19.30
2018-08-19T00:03:01.100Z,19.20
2018-08-19T00:05:29.148Z,19.20
2018-08-19T00:07:56.913Z,19.20
2018-08-19T00:10:38.918Z,19.20
2018-08-19T00:13:08.000Z,19.30
2018-08-19T00:15:36.440Z,19.30
2018-08-19T00:18:04.436Z,19.30
2018-08-19T00:20:32.121Z,19.30
2018-08-19T00:22:59.996Z,19.30
2018-08-19T00:25:32.471Z,19.30
2018-08-19T00:28:00.285Z,19.30
2018-08-19T00:30:29.802Z,19.30
2018-08-19T00:32:57.553Z,19.30
2018-08-19T00:35:25.840Z,19.30
2018-08-19T00:37:53.563Z,19.30
2018-08-19T00:40:22.372Z,19.30
2018-08-19T00:42:50.173Z,19.30
2018-08-19T00:45:18.147Z,19.20
2018-08-19T00:47:46.546Z,19.20
2018-08-19T00:50:14.281Z,19.10
2018-08-19T00:52:42.257Z,19.10
2018-08-19T00:55:10.001Z,19.00
2018-08-19T00:57:38.906Z,19.00
2018-08-19T01:00:06.769Z,19.00
2018-08-19T01:02:34.705Z,18.90
2018-08-19T01:05:02.433Z,18.90
2018-08-19T01:07:32.669Z,18.90
2018-08-19T01:10:00.728Z,18.90
2018-08-19T01:12:28.474Z,18.80
2018-08-19T01:14:56.226Z,18.80
2018-08-19T01:17:28.523Z,18.80
2018-08-19T01:20:01.191Z,18.80
2018-08-19T01:22:29.017Z,18.80
2018-08-19T01:24:56.825Z,18.80
2018-08-19T01:27:24.756Z,18.80
2018-08-19T01:29:52.672Z,19.00
2018-08-19T01:32:21.205Z,19.00
2018-08-19T01:34:48.869Z,19.00
2018-08-19T01:37:16.610Z,19.00
2018-08-19T01:39:44.260Z,18.90
2018-08-19T01:42:12.086Z,18.90
2018-08-19T01:44:41.531Z,18.90
2018-08-19T01:47:09.256Z,18.90
2018-08-19T01:49:36.898Z,18.80
2018-08-19T01:52:05.230Z,18.80
2018-08-19T01:54:33.050Z,18.80
2018-08-19T01:57:01.652Z,18.80
2018-08-19T01:59:31.676Z,18.70
2018-08-19T02:02:01.494Z,18.70
2018-08-19T02:04:30.368Z,18.70
2018-08-19T02:06:58.485Z,18.70
2018-08-19T02:09:26.291Z,18.70
2018-08-19T02:11:55.402Z,18.70
2018-08-19T02:14:23.703Z,18.70
2018-08-19T02:16:52.564Z,18.70
2018-08-19T02:19:20.420Z,18.70
2018-08-19T02:21:49.245Z,18.70
2018-08-19T02:24:17.496Z,18.70
2018-08-19T02:26:45.576Z,18.70
2018-08-19T02:29:34.069Z,18.60
2018-08-19T02:32:04.956Z,18.60
2018-08-19T02:34:33.996Z,18.60
2018-08-19T02:37:04.046Z,18.60
2018-08-19T02:39:33.289Z,18.60
2018-08-19T02:42:01.210Z,18.60
2018-08-19T02:44:28.889Z,18.60
2018-08-19T02:46:57.737Z,18.60
2018-08-19T02:49:25.395Z,18.60
2018-08-19T02:51:53.215Z,18.60
2018-08-19T02:54:20.901Z,18.60
2018-08-19T02:56:48.573Z,18.60
2018-08-19T02:59:16.305Z,18.60
2018-08-19T03:01:44.015Z,18.50
2018-08-19T03:04:11.685Z,18.50
2018-08-19T03:06:39.365Z,18.50
2018-08-19T03:09:10.380Z,18.50
2018-08-19T03:11:38.540Z,18.50
2018-08-19T03:14:06.489Z,18.40
2018-08-19T03:16:34.440Z,18.40
2018-08-19T03:19:02.343Z,18.40
2018-08-19T03:21:29.969Z,18.30
2018-08-19T03:23:57.706Z,18.30
2018-08-19T03:26:25.617Z,18.20
2018-08-19T03:28:53.310Z,18.20
2018-08-19T03:31:21.182Z,18.10
2018-08-19T03:33:48.956Z,18.10
2018-08-19T03:36:16.628Z,18.00
2018-08-19T03:38:44.376Z,18.00
2018-08-19T03:41:12.054Z,18.00
2018-08-19T03:43:45.093Z,17.90
2018-08-19T03:46:18.870Z,17.80
2018-08-19T03:48:47.160Z,17.70
2018-08-19T03:51:14.846Z,17.70
2018-08-19T03:53:42.561Z,17.70
2018-08-19T03:56:14.820Z,17.60
2018-08-19T03:58:42.639Z,17.50
2018-08-19T04:01:10.488Z,17.50
2018-08-19T04:03:38.233Z,17.40
2018-08-19T04:06:05.985Z,17.30
2018-08-19T04:08:39.450Z,17.20
2018-08-19T04:11:07.692Z,17.20
2018-08-19T04:13:40.220Z,17.20
2018-08-19T04:16:09.043Z,17.30
2018-08-19T04:18:37.957Z,17.30
2018-08-19T04:21:07.659Z,17.30
2018-08-19T04:23:35.993Z,17.30
2018-08-19T04:26:04.433Z,17.30
2018-08-19T04:28:38.300Z,17.20
2018-08-19T04:31:12.586Z,17.20
2018-08-19T04:33:42.588Z,17.20
2018-08-19T04:36:11.463Z,17.10
2018-08-19T04:38:39.264Z,17.20
2018-08-19T04:41:07.168Z,17.20
2018-08-19T04:43:34.907Z,17.20
2018-08-19T04:46:02.710Z,17.20
2018-08-19T04:48:30.534Z,17.30
2018-08-19T04:50:58.277Z,17.30
2018-08-19T04:53:26.033Z,17.30
2018-08-19T04:55:54.200Z,17.40
2018-08-19T04:58:22.146Z,17.40
2018-08-19T05:00:49.876Z,17.50
2018-08-19T05:03:17.532Z,17.60
2018-08-19T05:05:45.301Z,17.80
2018-08-19T05:08:14.302Z,17.90
2018-08-19T05:10:42.457Z,18.00
2018-08-19T05:13:11.263Z,18.00
2018-08-19T05:15:40.148Z,18.10
2018-08-19T05:18:08.096Z,18.20
2018-08-19T05:20:35.813Z,18.50
2018-08-19T05:23:03.534Z,19.50
2018-08-19T05:25:31.407Z,20.80
2018-08-19T05:28:06.239Z,22.10
2018-08-19T05:30:35.163Z,23.20
2018-08-19T05:33:04.067Z,24.50
2018-08-19T05:35:32.737Z,25.40
2018-08-19T05:38:01.624Z,25.70
2018-08-19T05:40:30.124Z,25.90
2018-08-19T05:42:57.841Z,26.70
2018-08-19T05:45:25.691Z,27.70
2018-08-19T05:48:04.864Z,28.60
2018-08-19T05:50:33.034Z,29.30
2018-08-19T05:53:00.717Z,30.00
2018-08-19T05:55:28.573Z,30.40
2018-08-19T05:57:56.378Z,31.00
2018-08-19T06:00:25.240Z,31.40
2018-08-19T06:02:59.453Z,31.80
2018-08-19T06:05:27.731Z,32.00
2018-08-19T06:08:01.073Z,31.90
2018-08-19T06:10:29.201Z,31.70
2018-08-19T06:12:57.269Z,31.50
2018-08-19T06:15:26.199Z,31.30
2018-08-19T06:17:53.927Z,31.10
2018-08-19T06:20:21.893Z,30.60
2018-08-19T06:22:49.654Z,30.30
2018-08-19T06:25:17.473Z,29.90
2018-08-19T06:27:46.212Z,29.70
2018-08-19T06:30:14.740Z,29.40
2018-08-19T06:32:42.593Z,29.20
2018-08-19T06:35:10.449Z,29.00
2018-08-19T06:37:38.147Z,29.10
2018-08-19T06:40:07.355Z,29.20
2018-08-19T06:42:35.137Z,29.10
2018-08-19T06:45:02.952Z,29.10
2018-08-19T06:47:30.806Z,29.10
2018-08-19T06:49:59.680Z,29.00
2018-08-19T06:52:28.108Z,29.00
2018-08-19T06:54:56.138Z,29.00
2018-08-19T06:57:27.610Z,29.00
2018-08-19T06:59:55.976Z,29.10
2018-08-19T07:02:23.929Z,29.30
2018-08-19T07:04:51.670Z,29.60
2018-08-19T07:07:20.177Z,29.80
2018-08-19T07:09:48.342Z,30.10
2018-08-19T07:12:20.525Z,30.50
2018-08-19T07:14:48.694Z,30.90
2018-08-19T07:17:17.376Z,31.30
2018-08-19T07:19:45.179Z,31.70
2018-08-19T07:22:15.600Z,32.00
2018-08-19T07:24:43.425Z,32.40
2018-08-19T07:27:11.125Z,32.70
2018-08-19T07:29:38.937Z,32.80
2018-08-19T07:32:08.369Z,33.10
2018-08-19T07:34:36.105Z,33.20
2018-08-19T07:37:03.950Z,33.50
2018-08-19T07:39:39.065Z,33.70
2018-08-19T07:42:07.573Z,34.00
2018-08-19T07:44:36.004Z,34.10
2018-08-19T07:47:03.877Z,34.20
2018-08-19T07:49:31.693Z,34.20
2018-08-19T07:51:59.493Z,34.50
2018-08-19T07:54:27.309Z,34.80
2018-08-19T07:56:54.996Z,35.30
2018-08-19T07:59:22.797Z,35.80
2018-08-19T08:01:50.705Z,36.00
2018-08-19T08:04:23.732Z,36.60
2018-08-19T08:06:51.472Z,37.10
2018-08-19T08:09:19.230Z,37.90
2018-08-19T08:11:46.966Z,38.50
2018-08-19T08:14:15.277Z,39.30
2018-08-19T08:16:48.735Z,40.00
2018-08-19T08:19:16.665Z,40.90
2018-08-19T08:21:44.445Z,41.20
2018-08-19T08:24:12.073Z,41.40
2018-08-19T08:26:45.438Z,42.20
2018-08-19T08:29:13.138Z,43.40
2018-08-19T08:31:46.535Z,44.70
2018-08-19T08:34:14.344Z,45.80
2018-08-19T08:36:42.097Z,46.60
2018-08-19T08:39:11.956Z,46.60
2018-08-19T08:41:39.653Z,46.70
2018-08-19T08:44:07.392Z,47.00
2018-08-19T08:46:35.221Z,47.00
2018-08-19T08:49:02.981Z,47.10
2018-08-19T08:51:30.755Z,47.00
2018-08-19T08:53:58.515Z,46.20
2018-08-19T08:56:26.242Z,45.40
2018-08-19T08:58:54.105Z,44.60
2018-08-19T09:01:21.983Z,43.10
2018-08-19T09:03:49.657Z,41.40
2018-08-19T09:06:23.081Z,39.70
2018-08-19T09:08:51.013Z,37.90
2018-08-19T09:11:18.655Z,36.30
2018-08-19T09:13:46.610Z,34.90
2018-08-19T09:16:14.337Z,33.90
2018-08-19T09:18:42.085Z,33.10
2018-08-19T09:21:09.881Z,32.60
2018-08-19T09:23:37.605Z,32.30
2018-08-19T09:26:05.339Z,31.90
2018-08-19T09:28:33.288Z,31.60
2018-08-19T09:31:01.085Z,31.30
2018-08-19T09:33:29.075Z,30.90
2018-08-19T09:35:56.814Z,30.70
2018-08-19T09:38:24.540Z,30.60
2018-08-19T09:40:52.615Z,30.40
2018-08-19T09:43:20.369Z,30.20
2018-08-19T09:45:48.446Z,30.10
2018-08-19T09:48:16.696Z,30.10
2018-08-19T09:50:44.782Z,30.00
2018-08-19T09:53:12.604Z,29.90
2018-08-19T09:55:51.801Z,29.80
2018-08-19T09:58:20.763Z,29.60
2018-08-19T10:00:54.089Z,29.60
2018-08-19T10:03:21.879Z,29.70
2018-08-19T10:05:49.686Z,29.80
2018-08-19T10:08:20.325Z,29.80
2018-08-19T10:10:48.131Z,29.80
2018-08-19T10:18:16.912Z,29.70
2018-08-19T10:20:44.602Z,29.60
2018-08-19T10:23:12.316Z,29.60
2018-08-19T10:25:40.146Z,29.50
2018-08-19T10:28:07.856Z,29.50
2018-08-19T10:30:43.841Z,29.50
2018-08-19T10:33:12.221Z,29.50
2018-08-19T10:35:39.971Z,29.50
2018-08-19T10:38:07.795Z,29.70
2018-08-19T10:40:35.481Z,29.70
2018-08-19T10:43:05.918Z,29.70
2018-08-19T10:45:38.326Z,29.70
2018-08-19T10:48:08.169Z,29.70
2018-08-19T10:50:36.075Z,29.60
2018-08-19T10:53:13.017Z,29.70
2018-08-19T10:55:40.688Z,29.60
2018-08-19T10:58:08.414Z,29.70
2018-08-19T11:00:36.201Z,29.70
2018-08-19T11:03:10.895Z,29.80
2018-08-19T11:05:39.990Z,29.80
2018-08-19T11:08:08.562Z,29.80
2018-08-19T11:10:36.404Z,29.80
2018-08-19T11:13:04.324Z,29.70
2018-08-19T11:15:34.754Z,29.80
2018-08-19T11:18:16.623Z,29.80
2018-08-19T11:20:44.711Z,29.80
2018-08-19T11:23:20.014Z,29.80
2018-08-19T11:25:48.532Z,29.80
2018-08-19T11:28:31.668Z,29.80
2018-08-19T11:30:59.405Z,29.90
2018-08-19T11:33:36.126Z,29.80
2018-08-19T11:36:03.926Z,29.90
2018-08-19T11:38:31.793Z,29.90
2018-08-19T11:41:01.738Z,29.90
2018-08-19T11:43:29.747Z,29.90
2018-08-19T11:45:57.753Z,29.90
2018-08-19T11:48:25.461Z,30.00
2018-08-19T11:50:53.282Z,29.90
2018-08-19T11:53:21.085Z,29.90
2018-08-19T11:55:48.847Z,30.00
2018-08-19T11:58:33.542Z,30.00
2018-08-19T12:01:02.860Z,30.00
2018-08-19T12:03:42.686Z,30.00
2018-08-19T12:06:10.622Z,30.00
2018-08-19T12:08:38.285Z,30.00
2018-08-19T12:11:12.543Z,30.00
2018-08-19T12:13:40.306Z,30.00
2018-08-19T12:16:08.081Z,30.00
2018-08-19T12:18:35.815Z,30.00
2018-08-19T12:21:03.505Z,30.00
2018-08-19T12:23:31.189Z,30.00
2018-08-19T12:25:58.876Z,30.00
2018-08-19T12:28:26.731Z,30.10
2018-08-19T12:30:54.477Z,30.10
2018-08-19T12:33:26.565Z,30.20
2018-08-19T12:35:56.066Z,30.20
2018-08-19T12:38:24.359Z,30.30
2018-08-19T12:40:53.051Z,30.30
2018-08-19T12:43:20.796Z,30.30
2018-08-19T12:45:48.695Z,30.30
2018-08-19T12:48:18.388Z,30.30
2018-08-19T12:50:53.826Z,30.30
2018-08-19T12:53:22.113Z,30.30
2018-08-19T12:55:50.097Z,30.30
2018-08-19T12:58:17.981Z,30.30
2018-08-19T13:00:45.676Z,30.30
2018-08-19T13:03:13.438Z,30.30
2018-08-19T13:05:57.205Z,30.30
2018-08-19T13:08:25.865Z,30.30
2018-08-19T13:10:53.778Z,30.40
2018-08-19T13:13:21.547Z,30.30
2018-08-19T13:15:49.226Z,30.30
2018-08-19T13:18:26.074Z,30.30
2018-08-19T13:20:59.799Z,30.30
2018-08-19T13:23:28.138Z,30.30
2018-08-19T13:25:55.853Z,30.30
2018-08-19T13:28:23.523Z,30.30
2018-08-19T13:30:51.221Z,30.30
2018-08-19T13:33:18.867Z,30.40
2018-08-19T13:35:46.505Z,30.40
2018-08-19T13:38:27.411Z,30.40
2018-08-19T13:40:55.122Z,30.30
2018-08-19T13:43:22.778Z,30.40
2018-08-19T13:45:50.497Z,30.30
2018-08-19T13:48:18.149Z,30.20
2018-08-19T13:50:45.846Z,30.20
2018-08-19T13:53:13.685Z,30.20
2018-08-19T13:55:41.461Z,30.20
2018-08-19T13:58:09.140Z,30.30
2018-08-19T14:00:36.920Z,30.30
2018-08-19T14:03:04.706Z,30.20
2018-08-19T14:05:32.512Z,30.30
2018-08-19T14:08:00.349Z,30.30
2018-08-19T14:10:28.041Z,30.20
2018-08-19T14:12:55.818Z,30.20
2018-08-19T14:15:23.640Z,30.30
2018-08-19T14:17:51.386Z,30.30
2018-08-19T14:20:19.107Z,30.30
2018-08-19T14:22:46.894Z,30.30
2018-08-19T14:25:14.582Z,30.30
2018-08-19T14:27:42.391Z,30.30
2018-08-19T14:30:11.359Z,30.40
2018-08-19T14:32:39.859Z,30.40
2018-08-19T14:35:07.647Z,30.50
2018-08-19T14:37:35.421Z,30.50
2018-08-19T14:40:03.957Z,30.50
2018-08-19T14:42:31.638Z,30.50
2018-08-19T14:44:59.808Z,30.50
2018-08-19T14:47:28.081Z,30.50
2018-08-19T14:49:57.871Z,30.50
2018-08-19T14:52:26.385Z,30.50
2018-08-19T14:54:54.117Z,30.50
2018-08-19T14:57:21.802Z,30.50
2018-08-19T14:59:49.521Z,30.50
2018-08-19T15:02:17.239Z,30.50
2018-08-19T15:04:46.126Z,30.50
2018-08-19T15:07:13.957Z,30.50
2018-08-19T15:09:46.173Z,30.40
2018-08-19T15:12:20.091Z,30.40
2018-08-19T15:14:48.166Z,30.40
2018-08-19T15:17:15.907Z,30.40
2018-08-19T15:19:47.031Z,30.30
2018-08-19T15:22:15.123Z,30.30
2018-08-19T15:24:42.788Z,30.30
2018-08-19T15:27:10.681Z,30.30
2018-08-19T15:29:43.757Z,30.20
2018-08-19T15:32:11.975Z,30.20
2018-08-19T15:39:38.516Z,30.10
2018-08-19T15:42:06.364Z,30.00
2018-08-19T15:44:34.193Z,30.10
2018-08-19T15:47:02.254Z,30.00
2018-08-19T15:49:29.862Z,30.00
2018-08-19T15:51:57.686Z,30.00
2018-08-19T15:54:25.610Z,30.00
2018-08-19T15:56:56.879Z,30.00
2018-08-19T15:59:24.569Z,29.90
2018-08-19T16:01:52.391Z,30.00
2018-08-19T16:04:21.030Z,29.90
2018-08-19T16:06:50.645Z,29.80
2018-08-19T16:09:20.001Z,29.90
2018-08-19T16:11:48.435Z,29.80
2018-08-19T16:14:23.719Z,29.80
2018-08-19T16:16:52.077Z,29.80
2018-08-19T16:19:19.913Z,29.70
2018-08-19T16:21:49.253Z,29.70
2018-08-19T16:24:17.081Z,29.60
2018-08-19T16:26:44.949Z,29.70
2018-08-19T16:29:12.752Z,29.60
2018-08-19T16:31:40.563Z,29.60
2018-08-19T16:34:08.562Z,29.60
2018-08-19T16:36:36.466Z,29.50
2018-08-19T16:39:07.129Z,29.50
2018-08-19T16:41:34.886Z,29.50
2018-08-19T16:44:02.652Z,29.40
2018-08-19T16:46:30.495Z,29.50
2018-08-19T16:48:58.285Z,29.50
2018-08-19T16:51:26.286Z,29.40
2018-08-19T16:53:53.988Z,29.40
2018-08-19T16:56:21.692Z,29.30
2018-08-19T16:58:49.450Z,29.20
2018-08-19T17:01:17.340Z,29.10
2018-08-19T17:03:45.187Z,29.00
2018-08-19T17:06:14.024Z,29.00
2018-08-19T17:08:42.208Z,29.00
2018-08-19T17:11:11.368Z,28.80
2018-08-19T17:13:39.649Z,28.80
2018-08-19T17:16:07.838Z,28.80
2018-08-19T17:18:35.693Z,28.70
2018-08-19T17:21:03.690Z,28.70
2018-08-19T17:23:32.037Z,28.60
2018-08-19T17:26:09.256Z,28.50
2018-08-19T17:28:37.036Z,28.50
2018-08-19T17:31:04.823Z,28.40
2018-08-19T17:33:32.803Z,28.30
2018-08-19T17:36:00.739Z,28.20
2018-08-19T17:38:30.085Z,28.10
2018-08-19T17:40:58.509Z,28.10
2018-08-19T17:43:31.999Z,28.00
2018-08-19T17:46:07.045Z,28.00
2018-08-19T17:48:36.011Z,27.90
2018-08-19T17:51:13.986Z,27.80
2018-08-19T17:53:41.977Z,27.70
2018-08-19T17:56:09.857Z,27.70
2018-08-19T17:58:37.717Z,27.60
2018-08-19T18:01:05.589Z,27.60
2018-08-19T18:03:33.326Z,27.60
2018-08-19T18:06:01.082Z,27.50
2018-08-19T18:08:29.485Z,27.40
2018-08-19T18:10:57.890Z,27.40
2018-08-19T18:13:26.037Z,27.30
2018-08-19T18:15:53.736Z,27.20
2018-08-19T18:18:21.668Z,27.20
2018-08-19T18:20:49.377Z,27.10
2018-08-19T18:23:22.644Z,27.10
2018-08-19T18:25:50.837Z,27.00
2018-08-19T18:28:23.581Z,27.00
2018-08-19T18:30:57.237Z,26.90
2018-08-19T18:33:24.917Z,26.80
2018-08-19T18:35:52.610Z,26.80
2018-08-19T18:38:26.365Z,26.70
2018-08-19T18:40:54.072Z,26.70
2018-08-19T18:43:21.808Z,26.50
2018-08-19T18:45:49.892Z,26.50
2018-08-19T18:48:18.554Z,26.50
2018-08-19T18:50:46.368Z,26.50
2018-08-19T18:53:14.661Z,26.40
2018-08-19T18:55:42.493Z,26.50
2018-08-19T18:58:10.354Z,26.40
2018-08-19T19:00:45.895Z,26.30
2018-08-19T19:03:13.615Z,26.30
2018-08-19T19:05:42.617Z,26.20
2018-08-19T19:08:12.334Z,26.20
2018-08-19T19:10:47.149Z,26.10
2018-08-19T19:13:15.413Z,26.00
2018-08-19T19:15:43.265Z,26.00
2018-08-19T19:18:12.151Z,25.90
2018-08-19T19:20:47.256Z,25.80
2018-08-19T19:23:15.068Z,25.80
2018-08-19T19:25:42.780Z,25.70
2018-08-19T19:28:10.622Z,25.60
2018-08-19T19:30:38.290Z,25.50
2018-08-19T19:33:11.171Z,25.40
2018-08-19T19:35:39.007Z,25.40
2018-08-19T19:38:07.297Z,25.40
2018-08-19T19:40:35.107Z,25.30
2018-08-19T19:43:03.235Z,25.20
2018-08-19T19:45:43.215Z,25.10
2018-08-19T19:48:11.451Z,25.10
2018-08-19T19:50:39.104Z,25.00
2018-08-19T19:53:07.119Z,24.90
2018-08-19T19:55:34.928Z,24.90
2018-08-19T19:58:02.815Z,24.80
2018-08-19T20:00:46.488Z,24.80
2018-08-19T20:03:14.196Z,24.80
2018-08-19T20:05:41.856Z,24.80
2018-08-19T20:08:09.566Z,24.70
2018-08-19T20:10:37.358Z,24.70
2018-08-19T20:13:05.048Z,24.70
2018-08-19T20:15:32.821Z,24.60
2018-08-19T20:18:00.589Z,24.50
2018-08-19T20:20:28.326Z,24.50
2018-08-19T20:22:56.078Z,24.40
2018-08-19T20:30:30.644Z,24.40
2018-08-19T20:32:58.511Z,24.30
2018-08-19T20:35:26.209Z,24.20
2018-08-19T20:37:54.020Z,24.20
2018-08-19T20:40:21.778Z,24.10
2018-08-19T20:42:49.451Z,24.00
2018-08-19T20:45:17.243Z,23.90
2018-08-19T20:47:44.940Z,23.90
2018-08-19T20:50:13.788Z,23.90
2018-08-19T20:52:46.080Z,23.80
2018-08-19T20:55:14.253Z,23.70
2018-08-19T20:57:42.336Z,23.70
2018-08-19T21:00:10.732Z,23.60
2018-08-19T21:02:38.375Z,23.60
2018-08-19T21:05:06.326Z,23.50
2018-08-19T21:07:34.105Z,23.50
2018-08-19T21:10:02.006Z,23.40
2018-08-19T21:12:29.810Z,23.40
2018-08-19T21:14:57.730Z,23.30
2018-08-19T21:17:25.467Z,23.20
2018-08-19T21:19:53.182Z,23.20
2018-08-19T21:22:22.126Z,23.20
2018-08-19T21:24:49.838Z,23.10
2018-08-19T21:27:17.665Z,23.10
2018-08-19T21:29:45.573Z,23.00
2018-08-19T21:32:13.518Z,23.00
2018-08-19T21:34:41.188Z,23.00
2018-08-19T21:37:08.930Z,23.00
2018-08-19T21:39:36.576Z,22.90
2018-08-19T21:42:04.415Z,22.90
2018-08-19T21:44:32.246Z,22.80
2018-08-19T21:46:59.932Z,22.80
2018-08-19T21:49:27.697Z,22.80
2018-08-19T21:51:55.511Z,22.70
2018-08-19T21:54:23.286Z,22.70
2018-08-19T21:56:50.994Z,22.60
2018-08-19T21:59:22.845Z,22.50
2018-08-19T22:01:52.874Z,22.50
2018-08-19T22:04:21.777Z,22.50
2018-08-19T22:06:49.909Z,22.40
2018-08-19T22:09:34.844Z,22.50
2018-08-19T22:12:03.350Z,22.50
2018-08-19T22:14:31.808Z,22.50
2018-08-19T22:17:05.545Z,22.50
2018-08-19T22:19:33.277Z,22.50
2018-08-19T22:22:00.927Z,22.50
2018-08-19T22:24:28.873Z,22.50
2018-08-19T22:27:02.846Z,22.50
2018-08-19T22:29:30.802Z,22.40
2018-08-19T22:31:58.512Z,22.30
2018-08-19T22:34:26.153Z,22.30
2018-08-19T22:36:53.868Z,22.30
2018-08-19T22:39:21.748Z,22.30
2018-08-19T22:41:50.925Z,22.20
2018-08-19T22:44:18.730Z,22.10
2018-08-19T22:46:46.415Z,22.10
2018-08-19T22:49:14.077Z,22.10
2018-08-19T22:51:41.831Z,22.10
2018-08-19T22:54:09.502Z,22.00
2018-08-19T22:56:37.317Z,22.00
2018-08-19T22:59:05.162Z,22.00
2018-08-19T23:01:38.630Z,22.00
2018-08-19T23:04:06.541Z,22.00
2018-08-19T23:06:34.313Z,22.00
2018-08-19T23:09:03.554Z,21.90
2018-08-19T23:11:36.937Z,21.90
2018-08-19T23:14:16.472Z,21.80
2018-08-19T23:16:44.344Z,21.70
2018-08-19T23:19:12.085Z,21.60
2018-08-19T23:21:39.753Z,21.60
2018-08-19T23:24:07.553Z,21.50
2018-08-19T23:26:35.304Z,21.40
2018-08-19T23:29:03.011Z,21.40
2018-08-19T23:31:30.870Z,21.30
2018-08-19T23:33:58.541Z,21.30
2018-08-19T23:36:26.307Z,21.20
2018-08-19T23:38:54.025Z,21.20
2018-08-19T23:41:21.896Z,21.10
2018-08-19T23:43:49.648Z,21.00
2018-08-19T23:46:17.487Z,20.90
2018-08-19T23:48:45.203Z,20.90
2018-08-19T23:51:16.889Z,20.90
2018-08-19T23:53:44.675Z,20.80
2018-08-19T23:56:12.419Z,20.80
2018-08-19T23:58:43.666Z,20.80
